Time;durP1;ratioP1;P1;durP2;ratioP2;P2;SDS_P1;SDS_P2;PMS_P1;PMS_P2;Temp;Humidity;BMP_temperature;BMP_pressure;BME280_temperature;BME280_humidity;BME280_pressure;Samples;Min_cycle;Max_cycle;Signal;HPM_P1;HPM_P2
2024/04/16 00:00:29;;;;;;;1.57;1.57;;;6.00;99.90;;;6.64;93.15;97170.88;11095444;26;20284;-63
2024/04/16 00:05:34;;;;;;;1.70;1.60;;;6.00;99.90;;;6.66;92.21;97143.91;11097495;26;20762;-63
2024/04/16 00:10:43;;;;;;;1.50;1.50;;;6.10;99.90;;;6.75;91.63;97164.78;11091617;26;20294;-63
2024/04/16 00:15:48;;;;;;;1.73;1.63;;;6.10;99.90;;;6.75;91.37;97144.47;11092773;26;20259;-61
2024/04/16 00:20:54;;;;;;;2.70;2.03;;;6.20;99.90;;;6.94;90.21;97143.03;11094225;26;20267;-64
2024/04/16 00:26:02;;;;;;;2.53;1.40;;;6.30;99.90;;;6.81;90.39;97143.06;11093462;26;20263;-63
2024/04/16 00:31:07;;;;;;;1.83;1.67;;;6.20;99.90;;;6.76;90.64;97141.16;11091740;26;20294;-62
2024/04/16 00:36:13;;;;;;;1.30;1.20;;;6.30;99.90;;;6.79;90.40;97144.66;11091178;26;20252;-64
2024/04/16 00:41:21;;;;;;;1.60;1.60;;;6.30;99.90;;;6.94;89.82;97132.84;11093124;26;21192;-63
2024/04/16 00:46:27;;;;;;;1.77;1.67;;;6.20;99.90;;;6.90;90.56;97153.81;11088438;26;20256;-63
2024/04/16 00:51:32;;;;;;;2.07;1.50;;;6.30;99.90;;;6.88;89.05;97122.34;11089176;26;20259;-62
2024/04/16 00:56:42;;;;;;;2.20;2.00;;;6.30;99.90;;;6.91;89.11;97120.84;11087229;26;20298;-63
2024/04/16 01:01:48;;;;;;;2.40;2.20;;;6.20;99.90;;;6.74;89.55;97112.22;11089105;26;20296;-61
2024/04/16 01:06:54;;;;;;;2.67;1.90;;;6.20;99.90;;;6.83;90.51;97100.88;11091572;26;20302;-62
2024/04/16 01:12:03;;;;;;;2.83;2.20;;;6.10;99.90;;;6.91;88.16;97109.81;11092899;26;21110;-63
2024/04/16 01:17:10;;;;;;;1.90;1.80;;;6.40;99.90;;;6.85;88.85;97104.38;11087173;26;20789;-63
2024/04/16 01:22:15;;;;;;;2.50;2.10;;;6.30;99.90;;;6.81;88.51;97074.50;11091609;26;20255;-63
2024/04/16 01:27:24;;;;;;;2.60;2.07;;;6.30;99.90;;;6.84;87.59;97078.13;11089444;26;20390;-62
2024/04/16 01:32:29;;;;;;;2.07;1.87;;;6.30;99.90;;;6.91;87.42;97109.81;11087636;26;20749;-63
2024/04/16 01:37:35;;;;;;;1.87;1.77;;;6.40;99.90;;;6.84;88.47;97084.84;11090907;26;20290;-63
2024/04/16 01:42:43;;;;;;;3.00;2.23;;;6.30;99.90;;;6.86;88.27;97068.91;11087341;26;20298;-62
2024/04/16 01:47:48;;;;;;;2.00;1.60;;;6.30;99.90;;;6.74;88.74;97076.69;11088485;26;20298;-63
2024/04/16 01:52:54;;;;;;;2.93;2.10;;;6.10;99.90;;;6.77;90.07;97078.53;11088099;26;20670;-63
2024/04/16 01:58:02;;;;;;;2.70;1.80;;;6.10;99.90;;;6.90;90.42;97077.59;11088308;26;20636;-63
2024/04/16 02:03:08;;;;;;;2.13;1.87;;;6.20;99.90;;;6.88;88.37;97067.34;11089739;26;20255;-63
2024/04/16 02:08:14;;;;;;;2.20;1.93;;;6.30;99.90;;;6.74;91.49;97070.72;11095645;26;20591;-62
2024/04/16 02:13:23;;;;;;;3.60;1.90;;;6.20;99.90;;;6.87;88.26;97049.47;11095408;26;21492;-62
2024/04/16 02:18:28;;;;;;;2.57;2.37;;;6.30;99.90;;;7.02;86.33;97055.44;11095282;26;20953;-62
2024/04/16 02:23:34;;;;;;;3.17;1.80;;;6.50;99.90;;;6.90;87.39;97039.50;11098152;26;20289;-63
2024/04/16 02:28:42;;;;;;;2.93;2.30;;;6.30;99.90;;;6.87;88.33;97059.63;11094083;26;20294;-64
2024/04/16 02:33:48;;;;;;;4.10;1.93;;;6.20;99.90;;;6.81;87.54;97041.47;11096616;26;20360;-64
2024/04/16 02:38:53;;;;;;;2.30;2.10;;;6.10;99.90;;;6.79;87.77;97038.88;11095032;26;20302;-62
2024/04/16 02:44:01;;;;;;;4.17;2.10;;;6.10;99.90;;;6.94;86.98;97038.88;11103183;26;20260;-63
2024/04/16 02:49:07;;;;;;;3.33;2.10;;;6.30;99.90;;;6.92;88.00;97035.34;11094294;26;20286;-64
2024/04/16 02:54:12;;;;;;;3.73;2.07;;;6.20;99.90;;;7.05;86.92;97047.97;11091253;26;20302;-63
2024/04/16 02:59:20;;;;;;;3.47;2.37;;;6.20;99.90;;;6.95;87.08;97046.59;11098332;26;20457;-62
2024/04/16 03:04:26;;;;;;;2.50;2.30;;;6.20;99.90;;;7.04;86.12;97045.34;11095469;26;20268;-62
2024/04/16 03:09:32;;;;;;;2.60;2.40;;;6.20;99.90;;;7.01;85.35;97041.00;11095897;26;20251;-60
2024/04/16 03:14:40;;;;;;;2.10;1.93;;;6.40;99.90;;;6.95;86.34;97033.91;11091616;26;20260;-62
2024/04/16 03:19:45;;;;;;;4.57;2.33;;;6.30;99.90;;;6.84;88.54;97037.47;11093663;26;20251;-63
2024/04/16 03:24:54;;;;;;;4.40;2.17;;;6.20;99.90;;;7.00;88.99;97045.16;11097811;26;20248;-61
2024/04/16 03:30:02;;;;;;;2.50;2.27;;;6.30;99.90;;;6.77;91.41;97056.53;11096028;26;20859;-62
2024/04/16 03:35:08;;;;;;;3.37;2.10;;;6.00;99.90;;;6.72;92.73;97051.97;11094408;26;20777;-64
2024/04/16 03:40:14;;;;;;;3.47;2.30;;;6.00;99.90;;;6.76;92.61;97064.97;11094475;26;20255;-62
2024/04/16 03:45:22;;;;;;;3.40;2.20;;;5.90;99.90;;;6.63;90.60;97054.84;11094567;26;20291;-63
2024/04/16 03:50:28;;;;;;;2.73;2.27;;;6.00;99.90;;;6.45;92.10;97063.94;11096967;26;20251;-62
2024/04/16 03:55:33;;;;;;;2.17;2.03;;;5.80;99.90;;;6.51;90.88;97057.53;11094966;26;20489;-61
2024/04/16 04:06:04;;;;;;;3.53;2.43;;;5.80;99.90;;;6.41;91.35;97067.97;11204321;26;20300;-63
2024/04/16 04:11:10;;;;;;;2.77;2.53;;;5.90;99.90;;;6.49;92.35;97081.97;11156622;26;20293;-63
2024/04/16 04:16:18;;;;;;;2.47;2.27;;;5.90;99.90;;;6.65;91.83;97078.69;11147947;26;20366;-64
2024/04/16 04:21:24;;;;;;;3.13;2.20;;;5.90;99.90;;;6.72;91.03;97085.00;11155636;26;20302;-62
2024/04/16 04:26:29;;;;;;;2.40;2.10;;;6.00;99.90;;;6.84;89.60;97090.81;11149531;26;20262;-63
2024/04/16 04:31:37;;;;;;;2.43;2.20;;;6.20;99.90;;;6.79;89.87;97096.41;11149609;26;20255;-63
2024/04/16 04:36:43;;;;;;;4.10;2.20;;;6.00;99.90;;;6.63;89.84;97100.56;11140770;26;20353;-61
2024/04/16 04:41:48;;;;;;;3.10;2.67;;;5.90;99.90;;;6.58;91.52;97089.28;11136331;26;20810;-63
2024/04/16 04:46:56;;;;;;;2.47;2.27;;;5.90;99.90;;;6.50;92.43;97085.41;11138370;26;20251;-64
2024/04/16 04:52:02;;;;;;;3.13;2.80;;;5.80;99.90;;;6.68;90.95;97081.41;11137951;26;20259;-62
2024/04/16 04:57:08;;;;;;;2.10;1.87;;;5.90;99.90;;;6.75;91.15;97086.06;11133133;26;20575;-62
2024/04/16 05:02:16;;;;;;;2.30;2.00;;;5.90;99.90;;;6.86;90.81;97106.13;11155750;26;20580;-61
2024/04/16 05:07:21;;;;;;;4.93;2.40;;;6.00;99.90;;;6.79;91.14;97109.09;11141786;26;21477;-62
2024/04/16 05:12:27;;;;;;;3.90;2.20;;;5.90;99.90;;;6.92;88.58;97116.66;11146013;26;20282;-62
2024/04/16 05:17:35;;;;;;;2.53;2.33;;;6.10;99.90;;;7.05;89.25;97124.22;11138727;26;20259;-62
2024/04/16 05:22:43;;;;;;;2.27;2.10;;;6.10;99.90;;;7.21;87.98;97125.97;11154848;26;20263;-63
2024/04/16 05:27:49;;;;;;;11.43;10.17;;;6.30;99.90;;;7.21;88.12;97138.66;11149038;26;20256;-63
2024/04/16 05:32:57;;;;;;;2.60;2.40;;;6.40;99.90;;;7.25;87.24;97137.19;11150331;26;20259;-62
2024/04/16 05:38:02;;;;;;;4.10;3.20;;;6.30;99.90;;;7.18;87.10;97139.41;11156512;26;20259;-62
2024/04/16 05:43:08;;;;;;;2.57;2.20;;;6.30;99.90;;;7.32;86.78;97139.28;11153993;26;20285;-63
2024/04/16 05:48:16;;;;;;;26.13;22.90;;;6.30;99.90;;;7.55;84.78;97145.69;11145167;26;20288;-63
2024/04/16 05:53:22;;;;;;;8.83;7.93;;;6.60;99.90;;;7.61;84.39;97154.56;11147904;26;20259;-61
2024/04/16 05:58:27;;;;;;;4.83;3.87;;;6.70;99.90;;;7.60;84.82;97140.09;11141163;26;20394;-63
2024/04/16 06:03:38;;;;;;;3.40;2.80;;;6.70;99.90;;;7.57;84.14;97147.53;11147973;26;20283;-63
2024/04/16 06:08:44;;;;;;;4.40;2.60;;;6.70;99.90;;;7.58;82.70;97149.31;11139269;26;20817;-63
2024/04/16 06:13:49;;;;;;;4.77;3.50;;;6.70;99.90;;;7.76;81.11;97151.13;11140906;26;20485;-63
2024/04/16 06:18:58;;;;;;;3.77;2.90;;;6.80;99.90;;;7.78;81.12;97162.25;11142012;26;20302;-63
2024/04/16 06:24:03;;;;;;;3.10;2.83;;;6.90;99.90;;;7.72;79.28;97159.38;11141103;26;20314;-63
2024/04/16 06:29:09;;;;;;;3.43;2.70;;;7.00;99.90;;;7.72;78.82;97167.88;11133131;26;20300;-63
2024/04/16 06:34:17;;;;;;;6.00;2.97;;;7.00;99.90;;;7.63;79.17;97163.13;11124608;26;20302;-63
2024/04/16 06:39:22;;;;;;;4.53;4.00;;;6.80;99.90;;;7.75;80.09;97157.88;11166306;26;20344;-63
2024/04/16 06:44:28;;;;;;;5.43;2.73;;;6.90;99.90;;;7.74;79.67;97161.22;11153525;26;20252;-63
2024/04/16 06:49:36;;;;;;;3.13;2.23;;;7.00;99.90;;;7.92;78.28;97141.00;11154068;26;20285;-63
2024/04/16 06:54:42;;;;;;;4.13;2.77;;;7.10;99.90;;;8.10;78.22;97142.03;11157957;26;20252;-62
2024/04/16 06:59:47;;;;;;;3.53;2.47;;;7.30;99.90;;;8.12;77.64;97137.88;11150787;26;20286;-62
2024/04/16 07:04:55;;;;;;;6.63;2.70;;;7.40;99.90;;;8.31;76.87;97136.34;11163845;26;20246;-63
2024/04/16 07:10:01;;;;;;;6.87;3.50;;;7.50;99.90;;;8.62;75.25;97126.16;11169956;26;20254;-63
2024/04/16 07:15:08;;;;;;;6.60;3.60;;;7.90;99.90;;;10.03;71.47;97119.53;11155746;26;20828;-63
2024/04/16 07:20:16;;;;;;;3.93;2.37;;;9.30;99.90;;;10.85;66.27;97106.25;11154993;26;20278;-63
2024/04/16 07:25:22;;;;;;;5.33;2.40;;;9.90;99.90;;;11.82;63.07;97099.22;11151229;26;20260;-62
2024/04/16 07:30:27;;;;;;;4.37;2.70;;;10.70;99.90;;;11.56;61.48;97093.06;11158267;26;20681;-63
2024/04/16 07:35:36;;;;;;;5.27;2.47;;;10.70;99.90;;;11.38;61.87;97084.63;11190846;26;20250;-63
2024/04/16 07:40:41;;;;;;;4.87;3.00;;;10.70;99.90;;;11.15;62.23;97081.97;11175232;26;20246;-63
2024/04/16 07:45:47;;;;;;;4.27;2.10;;;10.30;99.90;;;10.80;62.89;97083.03;11185475;26;20250;-61
2024/04/16 07:50:55;;;;;;;4.47;2.23;;;9.90;99.90;;;11.15;61.93;97087.09;11175576;26;20301;-63
2024/04/16 07:56:00;;;;;;;5.40;1.87;;;10.30;99.90;;;11.01;60.67;97083.09;11169454;26;20405;-63
2024/04/16 08:01:06;;;;;;;4.43;2.23;;;10.30;99.90;;;11.58;58.29;97073.50;11159624;26;20293;-63
2024/04/16 08:06:15;;;;;;;5.85;2.13;;;11.20;99.90;;;12.18;57.05;97074.19;11177862;26;20409;-63
2024/04/16 08:11:20;;;;;;;4.53;2.17;;;11.90;99.40;;;12.31;54.38;97065.28;11169347;26;20294;-62
2024/04/16 08:16:26;;;;;;;3.67;2.15;;;11.90;97.20;;;12.52;52.75;97060.06;11160915;26;20301;-63
2024/04/16 08:21:34;;;;;;;5.85;2.15;;;12.20;95.80;;;12.38;53.88;97048.44;11162065;26;20780;-63
2024/04/16 08:26:40;;;;;;;5.28;1.90;;;11.80;98.10;;;12.68;52.34;97047.81;11163930;26;20769;-64
2024/04/16 08:31:45;;;;;;;4.90;1.80;;;12.10;95.50;;;12.21;48.57;97052.94;11167904;26;20264;-62
2024/04/16 08:36:53;;;;;;;3.25;2.10;;;11.50;91.90;;;11.46;49.36;97035.50;11169258;26;20259;-62
2024/04/16 08:42:01;;;;;;;3.67;2.00;;;10.80;92.00;;;10.94;49.91;97022.28;11172188;26;20310;-63
2024/04/16 08:47:08;;;;;;;4.27;1.80;;;10.40;92.10;;;10.86;50.27;97046.66;11164570;26;20286;-63
2024/04/16 08:52:17;;;;;;;3.47;2.13;;;10.30;92.60;;;11.36;51.27;97040.19;11154508;26;20266;-63
2024/04/16 08:57:24;;;;;;;3.65;2.05;;;10.90;93.30;;;11.88;49.20;97037.19;11175741;26;20251;-63
2024/04/16 09:02:33;;;;;;;3.75;2.80;;;11.60;91.30;;;11.95;48.74;97036.59;11168797;26;20247;-62
2024/04/16 09:07:42;;;;;;;3.35;2.13;;;11.50;91.30;;;12.64;47.67;97034.00;11175928;26;20250;-62
2024/04/16 09:12:48;;;;;;;4.38;1.67;;;12.40;89.80;;;13.14;48.04;97021.19;11156768;26;20359;-62
2024/04/16 09:17:56;;;;;;;3.35;1.90;;;12.80;89.70;;;13.05;44.99;97025.19;11165814;26;20254;-63
2024/04/16 09:23:05;;;;;;;3.45;1.90;;;12.50;85.70;;;12.48;46.18;97026.59;11166476;26;20324;-64
2024/04/16 09:28:17;;;;;;;4.80;2.00;;;11.80;87.30;;;12.50;47.03;97020.69;11177007;26;20661;-63
2024/04/16 09:33:24;;;;;;;3.83;2.00;;;11.90;89.40;;;12.72;46.46;97014.63;11159359;26;20246;-63
2024/04/16 09:38:49;;;;;;;4.03;1.63;;;12.30;88.40;;;13.47;44.91;96999.19;11163449;26;20297;-61
2024/04/16 09:43:55;;;;;;;2.95;1.50;;;13.00;85.30;;;13.54;45.60;97009.69;11163887;26;20254;-62
2024/04/16 09:49:02;;;;;;;2.70;1.45;;;12.90;87.10;;;13.21;46.03;96982.94;11161923;26;20314;-63
2024/04/16 09:54:11;;;;;;;1.90;1.77;;;12.60;86.40;;;12.25;47.15;96983.06;11169427;26;20258;-62
2024/04/16 09:59:18;;;;;;;4.25;1.80;;;11.80;87.90;;;12.26;49.17;96978.81;11115120;21;20258;-64
2024/04/16 10:04:24;;;;;;;3.33;1.90;;;11.80;91.40;;;12.12;47.54;96980.88;10982451;26;20262;-59
2024/04/16 10:09:33;;;;;;;4.22;1.85;;;11.80;88.00;;;12.65;47.00;96963.09;10959792;26;20253;-60
2024/04/16 10:14:39;;;;;;;4.40;2.00;;;12.30;88.20;;;12.80;46.50;96958.50;10981510;26;20257;-61
2024/04/16 10:19:45;;;;;;;2.78;1.50;;;12.30;87.00;;;12.57;46.91;96961.16;10981419;26;20596;-64
2024/04/16 10:24:57;;;;;;;3.30;1.60;;;11.90;89.20;;;11.99;49.15;96971.88;10988775;26;20764;-64
2024/04/16 10:30:11;;;;;;;5.07;1.80;;;11.50;91.20;;;11.52;50.59;96968.34;10992725;26;20253;-61
2024/04/16 10:35:19;;;;;;;3.70;1.85;;;11.20;92.10;;;11.53;51.50;96979.44;10991703;26;20261;-60
2024/04/16 10:40:30;;;;;;;3.35;1.67;;;11.20;92.90;;;11.53;51.81;96977.75;10976398;26;20303;-60
2024/04/16 10:45:37;;;;;;;4.57;1.85;;;11.10;93.20;;;11.37;54.35;96970.31;10993943;26;20249;-66
2024/04/16 10:50:42;;;;;;;4.20;2.20;;;10.80;95.50;;;11.26;59.51;96968.19;10979393;26;20254;-62
2024/04/16 10:55:52;;;;;;;6.07;3.70;;;10.70;99.90;;;10.90;60.82;96985.50;10983480;26;20252;-61
2024/04/16 11:00:58;;;;;;;20.03;11.30;;;10.50;99.90;;;10.40;67.30;96991.88;10984842;26;20254;-60
2024/04/16 11:06:03;;;;;;;16.77;8.13;;;10.00;99.90;;;10.25;68.04;96969.06;11001824;26;20296;-61
2024/04/16 11:11:13;;;;;;;4.93;3.23;;;9.80;99.90;;;10.29;66.29;96980.31;10993412;26;20304;-57
2024/04/16 11:16:21;;;;;;;5.63;5.07;;;9.80;99.90;;;10.70;66.46;96970.97;10986962;26;20344;-59
2024/04/16 11:21:29;;;;;;;5.40;3.00;;;10.10;99.90;;;11.11;63.89;96969.28;10977026;26;20305;-60
2024/04/16 11:26:39;;;;;;;2.80;2.20;;;10.40;99.90;;;11.16;60.37;96960.97;10983671;26;20254;-61
2024/04/16 11:31:46;;;;;;;2.10;1.70;;;10.60;99.90;;;10.91;60.29;96966.78;10976223;26;20244;-57
2024/04/16 11:36:51;;;;;;;2.63;1.80;;;10.40;99.90;;;11.07;58.28;96960.59;10986094;26;20248;-59
2024/04/16 11:42:00;;;;;;;1.77;1.27;;;10.50;99.90;;;11.08;58.77;96956.38;10982830;26;20301;-61
2024/04/16 11:47:05;;;;;;;2.33;1.90;;;10.50;99.90;;;11.07;61.01;96967.38;10988108;26;20765;-59
2024/04/16 11:52:11;;;;;;;1.60;1.50;;;10.40;99.90;;;10.78;66.92;96983.28;10994357;26;20284;-62
2024/04/16 11:57:19;;;;;;;1.60;1.50;;;10.10;99.90;;;10.66;69.61;96980.22;10985519;26;20300;-59
2024/04/16 12:02:25;;;;;;;1.93;1.43;;;10.10;99.90;;;10.53;69.76;96985.59;10971720;26;20654;-61
2024/04/16 12:07:30;;;;;;;1.53;1.30;;;10.00;99.90;;;10.51;70.46;96977.00;10996064;26;20820;-60
2024/04/16 12:12:39;;;;;;;2.43;1.57;;;10.00;99.90;;;10.41;70.98;96980.84;10994819;26;20763;-63
2024/04/16 12:17:44;;;;;;;2.03;1.93;;;9.90;99.90;;;10.36;70.71;96973.00;10990310;26;20307;-61
2024/04/16 12:22:53;;;;;;;1.93;1.70;;;9.90;99.90;;;10.29;72.98;96975.19;10989148;26;20265;-61
2024/04/16 12:28:03;;;;;;;2.97;1.80;;;9.80;99.90;;;10.07;76.84;96975.91;10982865;26;20605;-63
2024/04/16 12:33:09;;;;;;;1.90;1.80;;;9.60;99.90;;;9.86;77.99;96989.44;10972953;26;20258;-61
2024/04/16 12:38:21;;;;;;;2.60;1.83;;;9.50;99.90;;;9.54;83.79;96982.00;10985114;26;20253;-62
2024/04/16 12:43:29;;;;;;;2.00;1.80;;;9.20;99.90;;;9.27;85.75;96959.50;10986902;26;20273;-62
2024/04/16 12:48:35;;;;;;;2.03;1.93;;;9.00;99.90;;;9.46;87.88;96959.53;10980840;26;20946;-60
2024/04/16 12:53:41;;;;;;;2.90;1.80;;;9.20;99.90;;;9.85;87.42;96961.31;10988668;26;20252;-59
2024/04/16 12:58:49;;;;;;;2.00;1.90;;;9.70;99.90;;;10.09;84.43;96947.06;10999133;26;20257;-59
2024/04/16 13:03:55;;;;;;;1.60;1.50;;;9.80;99.90;;;10.53;82.29;96929.38;10979149;26;20362;-61
2024/04/16 13:09:01;;;;;;;1.77;1.67;;;10.20;99.90;;;10.73;77.87;96928.56;10984319;26;20797;-60
2024/04/16 13:14:10;;;;;;;1.50;1.40;;;10.40;99.90;;;10.99;76.26;96910.84;10977887;26;20641;-59
2024/04/16 13:19:19;;;;;;;2.78;1.20;;;10.70;99.90;;;11.20;72.84;96921.03;10981744;26;20761;-63
2024/04/16 13:24:25;;;;;;;1.67;1.40;;;10.90;99.90;;;11.38;71.10;96900.41;10992199;26;20728;-61
2024/04/16 13:29:33;;;;;;;2.25;1.40;;;10.90;99.90;;;11.58;66.61;96896.91;10989498;26;20269;-59
2024/04/16 13:34:39;;;;;;;1.65;1.55;;;11.20;99.90;;;11.63;67.40;96882.59;10981820;26;20288;-60
2024/04/16 13:39:45;;;;;;;2.53;1.50;;;11.30;99.90;;;11.53;68.95;96872.84;10971286;26;20376;-63
2024/04/16 13:44:53;;;;;;;1.88;1.58;;;11.10;99.90;;;11.66;70.56;96867.34;10984473;26;20253;-67
2024/04/16 13:49:58;;;;;;;2.03;1.48;;;11.30;99.90;;;11.69;65.24;96859.78;10996954;26;20759;-61
2024/04/16 13:55:04;;;;;;;1.45;1.35;;;11.50;99.90;;;11.72;63.89;96843.69;10977348;26;20265;-62
2024/04/16 14:00:14;;;;;;;4.50;1.63;;;11.40;99.90;;;11.69;64.20;96846.13;10975053;26;20261;-62
2024/04/16 14:05:20;;;;;;;1.45;1.35;;;11.30;99.90;;;11.75;61.34;96851.47;10984859;26;20638;-58
2024/04/16 14:10:25;;;;;;;1.73;1.33;;;11.30;99.90;;;11.60;65.91;96850.91;10989532;26;20682;-63
2024/04/16 14:15:34;;;;;;;1.90;1.33;;;11.30;99.90;;;11.89;62.46;96841.75;11003100;26;20293;-60
2024/04/16 14:20:40;;;;;;;2.15;1.17;;;11.60;99.90;;;11.94;62.23;96827.44;10986633;26;20699;-60
2024/04/16 14:25:46;;;;;;;3.17;1.20;;;11.50;99.90;;;12.20;59.47;96819.78;10992227;26;20303;-62
2024/04/16 14:30:54;;;;;;;1.17;1.08;;;11.70;99.90;;;12.20;56.80;96822.31;10967410;26;20312;-63
2024/04/16 14:36:02;;;;;;;1.65;1.30;;;11.80;99.70;;;12.38;58.64;96815.25;10988583;26;20883;-62
2024/04/16 14:41:08;;;;;;;1.77;1.40;;;11.90;99.90;;;12.59;56.29;96831.34;10992257;26;20316;-61
2024/04/16 14:46:16;;;;;;;4.32;1.65;;;12.00;99.20;;;12.57;56.67;96825.28;10979216;26;20835;-62
2024/04/16 14:51:22;;;;;;;7.47;6.85;;;12.20;99.10;;;12.65;55.63;96815.28;10984755;26;20300;-62
2024/04/16 14:56:28;;;;;;;2.50;2.25;;;12.20;98.70;;;12.87;54.52;96800.56;10987011;26;20257;-62
2024/04/16 15:01:36;;;;;;;1.27;1.17;;;12.30;97.60;;;13.02;53.14;96799.34;10979395;26;20262;-61
2024/04/16 15:06:43;;;;;;;1.52;1.42;;;12.40;96.80;;;13.17;52.16;96780.97;10992248;26;20296;-60
2024/04/16 15:11:49;;;;;;;1.98;1.75;;;12.70;95.50;;;13.16;54.51;96783.47;10978923;26;20320;-63
2024/04/16 15:16:57;;;;;;;2.78;1.80;;;12.60;97.70;;;13.20;53.35;96777.63;10983255;26;20258;-63
2024/04/16 15:22:03;;;;;;;1.83;1.27;;;12.50;97.40;;;13.33;53.22;96776.31;10972324;26;20310;-63
2024/04/16 15:27:08;;;;;;;1.98;1.50;;;12.40;97.50;;;13.28;55.38;96773.63;10972279;26;20269;-61
2024/04/16 15:32:16;;;;;;;1.67;1.45;;;12.30;99.40;;;13.03;52.80;96778.00;10986030;26;20934;-61
2024/04/16 15:37:22;;;;;;;2.88;1.50;;;12.30;96.70;;;12.90;52.61;96786.13;10952095;26;20269;-64
2024/04/16 15:42:27;;;;;;;1.70;1.10;;;12.20;96.20;;;12.78;52.91;96791.75;10949520;26;20304;-61
2024/04/16 15:47:35;;;;;;;2.25;1.40;;;12.10;96.60;;;12.79;52.84;96777.22;10977998;26;20838;-60
2024/04/16 15:52:42;;;;;;;1.35;1.25;;;12.10;95.80;;;12.62;51.93;96777.59;10986513;26;20265;-61
2024/04/16 15:57:48;;;;;;;1.30;1.20;;;12.00;95.40;;;12.26;53.16;96794.34;10969953;26;20357;-58
2024/04/16 16:02:57;;;;;;;1.80;1.70;;;11.70;95.80;;;12.22;53.80;96783.13;10958282;26;20258;-64
2024/04/16 16:08:04;;;;;;;1.65;1.55;;;11.60;96.70;;;12.35;54.83;96774.16;10969866;26;20261;-64
2024/04/16 16:13:09;;;;;;;2.45;1.45;;;11.70;97.70;;;12.32;54.47;96774.06;10954993;26;20253;-65
2024/04/16 16:18:17;;;;;;;1.40;1.30;;;11.70;97.40;;;12.05;56.56;96774.88;10967349;26;20259;-62
2024/04/16 16:23:23;;;;;;;2.45;1.75;;;11.40;98.90;;;12.38;55.70;96774.25;10969442;26;20311;-63
2024/04/16 16:28:28;;;;;;;2.95;2.70;;;11.60;98.80;;;12.10;57.29;96791.28;10959323;26;20252;-62
2024/04/16 16:33:37;;;;;;;2.08;1.90;;;11.40;99.70;;;12.02;58.40;96789.25;10967048;26;20879;-64
2024/04/16 16:38:43;;;;;;;1.88;1.50;;;11.30;99.90;;;11.88;58.25;96791.38;10968736;26;20253;-64
2024/04/16 16:43:48;;;;;;;1.40;1.25;;;11.30;99.90;;;11.69;59.98;96785.56;10972799;26;20265;-63
2024/04/16 16:48:57;;;;;;;1.30;1.02;;;11.30;99.90;;;11.59;59.87;96798.88;10965646;26;20266;-65
2024/04/16 16:54:03;;;;;;;1.60;1.50;;;10.90;99.90;;;11.54;59.99;96810.63;10984668;26;20308;-63
2024/04/16 16:59:09;;;;;;;3.88;1.92;;;10.80;99.90;;;11.55;60.31;96804.66;10984580;26;20741;-64
2024/04/16 17:04:17;;;;;;;2.00;1.85;;;10.90;99.90;;;11.43;59.92;96805.09;10977301;26;20393;-64
2024/04/16 17:09:22;;;;;;;1.60;1.50;;;10.70;99.90;;;11.49;58.57;96791.66;10959474;26;20597;-64
2024/04/16 17:14:28;;;;;;;1.20;1.20;;;10.70;99.90;;;11.36;58.72;96779.22;10971144;26;20261;-63
2024/04/16 17:19:36;;;;;;;2.05;1.40;;;10.80;99.90;;;11.23;58.87;96778.78;10969033;26;20250;-64
2024/04/16 17:24:42;;;;;;;1.38;1.20;;;10.70;99.90;;;11.14;59.19;96788.69;10970384;26;20363;-64
2024/04/16 17:29:50;;;;;;;1.60;1.50;;;10.50;99.90;;;11.11;59.70;96793.69;10970447;26;20257;-63
2024/04/16 17:34:59;;;;;;;1.85;1.75;;;10.50;99.90;;;11.02;63.19;96821.47;10970547;26;20902;-64
2024/04/16 17:40:04;;;;;;;2.40;1.83;;;10.40;99.90;;;10.80;66.65;96842.75;10958948;26;20253;-63
2024/04/16 17:45:10;;;;;;;2.37;2.10;;;10.20;99.90;;;10.49;67.01;96848.31;10961168;26;20261;-63
2024/04/16 17:50:18;;;;;;;3.05;1.90;;;9.80;99.90;;;10.58;66.57;96851.25;10967063;26;20261;-62
2024/04/16 17:55:24;;;;;;;1.63;1.53;;;9.80;99.90;;;10.58;70.39;96851.25;10972379;26;20277;-62
2024/04/16 18:00:30;;;;;;;2.58;1.73;;;9.80;99.90;;;10.33;73.85;96849.38;10965913;26;20308;-64
2024/04/16 18:05:39;;;;;;;1.92;1.65;;;9.60;99.90;;;10.23;74.88;96857.44;10943182;26;20289;-64
2024/04/16 18:10:44;;;;;;;1.67;1.63;;;9.50;99.90;;;10.04;75.72;96845.56;10963189;26;20759;-61
2024/04/16 18:15:52;;;;;;;2.10;1.90;;;9.40;99.90;;;10.24;74.80;96849.81;10971814;26;20289;-63
2024/04/16 18:21:01;;;;;;;1.90;1.80;;;9.50;99.90;;;10.14;75.11;96850.25;10979996;26;20791;-64
2024/04/16 18:26:07;;;;;;;2.17;1.97;;;9.40;99.90;;;10.21;75.01;96841.16;10970779;26;20325;-64
2024/04/16 18:31:13;;;;;;;2.40;1.80;;;9.50;99.90;;;10.14;73.63;96850.25;10967355;26;20305;-63
2024/04/16 18:36:21;;;;;;;1.93;1.50;;;9.50;99.90;;;10.21;72.25;96849.69;10970245;26;20257;-63
2024/04/16 18:41:26;;;;;;;2.53;1.70;;;9.50;99.90;;;10.22;73.61;96877.00;10975277;26;20303;-64
2024/04/16 18:46:32;;;;;;;4.53;2.60;;;9.60;99.90;;;9.65;79.49;96886.44;10969892;26;20254;-64
2024/04/16 18:51:41;;;;;;;1.70;1.60;;;9.20;99.90;;;8.91;85.52;96898.31;10978667;26;20367;-63
2024/04/16 18:56:46;;;;;;;3.30;2.60;;;8.50;99.90;;;8.76;88.29;96902.69;10958680;26;21574;-63
2024/04/16 19:01:52;;;;;;;2.87;2.47;;;8.40;99.90;;;8.52;91.34;96903.22;10983489;26;20257;-64
2024/04/16 19:07:00;;;;;;;1.97;1.77;;;8.20;99.90;;;8.67;91.27;96907.31;10980070;26;20372;-65
2024/04/16 19:12:07;;;;;;;2.17;1.97;;;8.20;99.90;;;8.61;91.00;96912.09;11000491;26;20299;-61
2024/04/16 19:17:12;;;;;;;2.23;2.10;;;8.10;99.90;;;8.41;93.00;96909.44;10982513;26;20582;-64
2024/04/16 19:22:21;;;;;;;2.37;2.17;;;8.00;99.90;;;8.40;93.70;96938.25;10982042;26;20352;-65
2024/04/16 19:27:31;;;;;;;2.20;2.00;;;8.00;99.90;;;8.40;93.58;96948.44;10978964;26;20250;-64
2024/04/16 19:32:36;;;;;;;2.37;2.27;;;8.00;99.90;;;8.42;95.45;96936.69;10988686;26;20258;-65
2024/04/16 19:37:44;;;;;;;4.00;2.40;;;8.00;99.90;;;8.42;97.25;96969.78;10986931;26;20250;-62
2024/04/16 19:42:50;;;;;;;1.93;1.83;;;8.00;99.90;;;8.17;98.29;96971.84;10987369;26;20253;-63
2024/04/16 19:47:56;;;;;;;2.40;2.20;;;7.80;99.90;;;8.25;99.33;96970.56;10971567;26;20249;-65
2024/04/16 19:53:04;;;;;;;2.70;2.27;;;7.70;99.90;;;8.15;100.00;96958.16;10960231;26;20332;-65
2024/04/16 19:58:10;;;;;;;2.50;2.30;;;7.70;99.90;;;8.23;100.00;96956.88;10976859;26;20285;-67
2024/04/16 20:03:16;;;;;;;3.77;2.30;;;7.70;99.90;;;8.17;100.00;96956.56;10986710;26;20339;-65
2024/04/16 20:08:24;;;;;;;2.77;2.60;;;7.70;99.90;;;8.22;100.00;96955.13;10981798;26;20258;-64
2024/04/16 20:13:29;;;;;;;2.60;2.40;;;7.70;99.90;;;8.29;100.00;96955.50;10981878;26;20253;-64
2024/04/16 20:18:35;;;;;;;2.17;2.07;;;7.70;99.90;;;8.15;99.09;96963.22;10993054;26;20586;-65
2024/04/16 20:23:44;;;;;;;2.90;2.23;;;7.60;99.90;;;8.43;97.09;96957.91;10997012;26;20615;-65
2024/04/16 20:28:49;;;;;;;2.53;2.33;;;7.70;99.90;;;8.40;98.29;96962.84;10970710;26;20644;-63
2024/04/16 20:33:56;;;;;;;2.33;2.23;;;7.80;99.90;;;8.37;98.70;96961.00;10970206;26;20265;-63
2024/04/16 20:39:04;;;;;;;2.53;2.33;;;7.70;99.90;;;8.35;98.70;96953.28;10985967;26;20311;-64
2024/04/16 20:44:11;;;;;;;2.37;2.17;;;7.70;99.90;;;8.22;99.66;96947.50;10988329;26;20279;-65
2024/04/16 20:49:17;;;;;;;2.60;2.40;;;7.70;99.90;;;8.36;99.66;96949.06;11003810;26;20250;-65
2024/04/16 20:54:25;;;;;;;2.73;2.40;;;7.70;99.90;;;8.27;99.54;96948.59;10977053;26;20278;-63
2024/04/16 20:59:30;;;;;;;3.77;2.60;;;7.60;99.90;;;8.21;98.92;96945.72;10974309;26;20726;-65
2024/04/16 21:04:36;;;;;;;2.77;2.30;;;7.60;99.90;;;8.21;99.30;96951.72;10984416;26;20261;-64
2024/04/16 21:09:45;;;;;;;2.33;2.13;;;7.60;99.90;;;8.13;100.00;96961.50;10993213;26;20254;-65
2024/04/16 21:14:51;;;;;;;2.23;2.13;;;7.60;99.90;;;8.24;97.31;96956.06;10998640;26;20633;-65
2024/04/16 21:19:57;;;;;;;2.00;1.90;;;7.60;99.90;;;8.11;98.09;96963.06;10992252;26;20260;-65
2024/04/16 21:25:06;;;;;;;2.20;2.10;;;7.60;99.90;;;8.15;98.95;96966.66;10998260;26;20295;-65
2024/04/16 21:30:12;;;;;;;2.27;2.17;;;7.60;99.90;;;8.25;97.97;96965.47;10988176;26;20312;-64
2024/04/16 21:35:18;;;;;;;2.20;2.10;;;7.60;99.90;;;8.29;96.46;96965.69;10990191;26;20586;-65